Wetterdaten: aktuell Freitag, 02.12.2011 20:13
Datum Zeit Temp. I. Temp. A. Feuchte I. Feuchte A. Luftdruck Regen Wind Richtung Richtung Taupunkt Windchill Windben
02.12.2011 20:13 0,0 C 5,8 C 0 % 78 % 0 hPa 0,0 mm 7,2 km/h (2 Bft) O-NO 65 2,3 C 5,1 C 8,6 km/h (2 Bft)
02.12.2011 19:13 0,0 C 6,0 C 0 % 76 % 0 hPa 0,0 mm 4,3 km/h (1 Bft) O-NO 77 2,1 C 6,0 C 5,0 km/h (1 Bft)
02.12.2011 18:13 0,0 C 6,8 C 0 % 76 % 0 hPa 1,0 mm 5,8 km/h (2 Bft) S-SO 158 2,9 C 6,8 C 5,8 km/h (2 Bft)
02.12.2011 17:13 0,0 C 7,6 C 0 % 82 % 0 hPa 0,0 mm 3,6 km/h (1 Bft) O-NO 77 4,7 C 7,6 C 5,0 km/h (1 Bft)
02.12.2011 16:13 0,0 C 7,7 C 0 % 84 % 0 hPa 0,0 mm 7,9 km/h (2 Bft) SO 125 5,2 C 6,5 C 16,2 km/h (3 Bft)
02.12.2011 15:13 0,0 C 8,5 C 0 % 76 % 0 hPa 0,0 mm 11,5 km/h (2 Bft) S-SO 166 4,5 C 5,1 C 16,2 km/h (3 Bft)
02.12.2011 14:13 0,0 C 13,4 C 0 % 46 % 0 hPa 0,0 mm 16,9 km/h (3 Bft) O 91 2,0 C 8,6 C 17,6 km/h (3 Bft)
02.12.2011 13:13 0,0 C 13,8 C 0 % 45 % 0 hPa 0,0 mm 14,8 km/h (3 Bft) NO 38 2,1 C 9,8 C 16,2 km/h (3 Bft)
02.12.2011 12:13 0,0 C 14,2 C 0 % 44 % 0 hPa 0,0 mm 5,0 km/h (1 Bft) O-NO 74 2,1 C 14,2 C 8,6 km/h (2 Bft)
02.12.2011 11:13 0,0 C 14,4 C 0 % 41 % 0 hPa 0,0 mm 7,9 km/h (2 Bft) N-NO 15 1,3 C 13,5 C 12,2 km/h (2 Bft)
02.12.2011 10:13 0,0 C 12,0 C 0 % 47 % 0 hPa 0,0 mm 7,9 km/h (2 Bft) NO 49 1,0 C 11,0 C 13,3 km/h (3 Bft)
02.12.2011 09:13 0,0 C 10,4 C 0 % 52 % 0 hPa 0,0 mm 7,2 km/h (2 Bft) N-NO 21 1,0 C 9,8 C 16,2 km/h (3 Bft)
02.12.2011 08:13 0,0 C 10,2 C 0 % 53 % 0 hPa 0,0 mm 10,8 km/h (2 Bft) N-NO 24 1,1 C 7,4 C 12,2 km/h (2 Bft)
02.12.2011 07:13 0,0 C 10,3 C 0 % 52 % 0 hPa 0,0 mm 11,5 km/h (2 Bft) N-NO 33 0,9 C 7,1 C 13,3 km/h (3 Bft)
02.12.2011 06:13 0,0 C 10,5 C 0 % 55 % 0 hPa 0,0 mm 10,1 km/h (2 Bft) N-NO 29 1,8 C 8,1 C 12,2 km/h (2 Bft)
02.12.2011 05:13 0,0 C 11,0 C 0 % 57 % 0 hPa 0,0 mm 9,4 km/h (2 Bft) N-NW 331 2,8 C 9,0 C 16,9 km/h (3 Bft)
02.12.2011 04:13 0,0 C 10,8 C 0 % 58 % 0 hPa 0,0 mm 7,9 km/h (2 Bft) N 353 2,9 C 9,8 C 14,8 km/h (3 Bft)
02.12.2011 03:13 0,0 C 10,6 C 0 % 55 % 0 hPa 0,0 mm 6,5 km/h (2 Bft) N 8 1,9 C 10,6 C 7,9 km/h (2 Bft)
02.12.2011 02:13 0,0 C 10,9 C 0 % 52 % 0 hPa 0,0 mm 5,8 km/h (2 Bft) N-NO 32 1,4 C 10,9 C 9,4 km/h (2 Bft)
02.12.2011 01:13 0,0 C 10,5 C 0 % 56 % 0 hPa 0,0 mm 8,6 km/h (2 Bft) NO 37 2,1 C 9,0 C 10,8 km/h (2 Bft)
02.12.2011 00:13 0,0 C 10,5 C 0 % 59 % 0 hPa 0,0 mm 7,2 km/h (2 Bft) N-NO 24 2,8 C 9,9 C 10,1 km/h (2 Bft)
01.12.2011 23:13 0,0 C 10,4 C 0 % 62 % 0 hPa 0,0 mm 5,8 km/h (2 Bft) NO 53 3,4 C 10,4 C 13,0 km/h (3 Bft)
01.12.2011 22:12 0,0 C 10,0 C 0 % 67 % 0 hPa 0,0 mm 7,2 km/h (2 Bft) NO 43 4,2 C 9,4 C 10,1 km/h (2 Bft)
01.12.2011 21:12 0,0 C 9,3 C 0 % 74 % 0 hPa 0,0 mm 7,9 km/h (2 Bft) NO 39 4,9 C 8,2 C 11,5 km/h (2 Bft)
01.12.2011 21:00 0,0 C 8,4 C 0 % 79 % 0 hPa 0,0 mm 7,2 km/h (2 Bft) NO 47 5,0 C 7,8 C 7,9 km/h (2 Bft)
_ Min-Zeit 21:00 19:29 21:00 11:27 21:00 - 16:04 - - 09:31 15:24 16:50
Minimum _ 0,0 C 5,8 C 0 % 39 % 0 hPa - 0,0 km/h (0 Bft) - - 0,6 C 2,1 C 0,0 km/h (0 Bft)
_ Max-Zeit 21:00 11:29 21:00 15:50 21:00 17:27 14:23 - - 21:03 11:30 14:22
Maximum _ 0,0 C 15,1 C 0 % 84 % 0 hPa 1,0 mm 27,0 km/h
O-NO (4 Bft)
- - 5,4 C 15,1 C 33,8 km/h
O-NO (5 Bft)
Durchschnitt _ 0,0 C 10,2 C 0 % 61 % 0 hPa #1,0 mm 9,0 km/h (2 Bft) NO - 2,7 C 8,5 C 11,9 km/h (2 Bft)